Time;durP1;ratioP1;P1;durP2;ratioP2;P2;SDS_P1;SDS_P2;PMS_P1;PMS_P2;Temp;Humidity;BMP_temperature;BMP_pressure;BME280_temperature;BME280_humidity;BME280_pressure;Samples;Min_cycle;Max_cycle;Signal;HPM_P1;HPM_P2
2022/05/04 00:01:45;;;;;;;12.25;10.95;;;;;;;9.57;78.41;94447.34;1681893;85;21223;-52
2022/05/04 00:04:11;;;;;;;15.50;12.03;;;;;;;9.52;78.55;94443.81;1681759;85;21093;-50
2022/05/04 00:06:40;;;;;;;19.73;14.03;;;;;;;9.48;78.49;94443.96;1681895;84;21022;-52
2022/05/04 00:09:06;;;;;;;19.48;14.35;;;;;;;9.43;78.60;94447.88;1681812;85;20991;-50
2022/05/04 00:11:33;;;;;;;18.82;14.65;;;;;;;9.38;78.72;94444.31;1681990;85;21029;-50
2022/05/04 00:14:01;;;;;;;17.57;12.80;;;;;;;9.37;78.97;94444.16;1681842;85;21188;-52
2022/05/04 00:16:28;;;;;;;19.52;13.80;;;;;;;9.37;79.14;94441.41;1681674;85;21077;-52
2022/05/04 00:18:55;;;;;;;19.10;14.25;;;;;;;9.34;79.33;94450.54;1682015;85;21497;-52
2022/05/04 00:21:21;;;;;;;19.32;14.45;;;;;;;9.30;79.16;94451.28;1682131;85;21562;-51
2022/05/04 00:23:48;;;;;;;14.53;11.83;;;;;;;9.24;78.96;94451.70;1681862;85;21005;-51
2022/05/04 00:26:14;;;;;;;12.03;10.15;;;;;;;9.17;78.74;94454.08;1681795;84;21058;-50
2022/05/04 00:28:41;;;;;;;15.25;11.08;;;;;;;9.12;78.85;94460.73;1681659;85;21085;-51
2022/05/04 00:31:08;;;;;;;14.50;11.90;;;;;;;9.07;78.92;94455.20;1681821;85;21131;-51
2022/05/04 00:33:35;;;;;;;14.43;11.25;;;;;;;9.02;79.20;94453.03;1681840;85;21026;-52
2022/05/04 00:36:01;;;;;;;20.95;13.25;;;;;;;9.00;79.09;94458.20;1682079;85;21593;-50
2022/05/04 00:38:28;;;;;;;18.05;11.38;;;;;;;8.95;78.99;94464.84;1681963;85;21219;-51
2022/05/04 00:40:54;;;;;;;12.03;10.23;;;;;;;8.89;79.07;94461.89;1681765;85;21077;-50
2022/05/04 00:43:23;;;;;;;11.00;9.60;;;;;;;8.88;78.96;94471.33;1681830;85;21068;-51
2022/05/04 00:45:50;;;;;;;13.95;10.20;;;;;;;8.84;79.11;94471.91;1681758;85;21034;-51
2022/05/04 00:48:17;;;;;;;12.60;10.40;;;;;;;8.80;79.25;94465.77;1681773;85;21101;-51
2022/05/04 00:50:44;;;;;;;12.85;10.50;;;;;;;8.76;79.52;94471.36;1681718;85;21384;-51
2022/05/04 00:53:11;;;;;;;12.47;11.15;;;;;;;8.73;79.68;94474.99;1681751;85;21113;-50
2022/05/04 00:55:39;;;;;;;16.40;13.03;;;;;;;8.71;80.08;94475.27;1681798;85;21043;-52
2022/05/04 01:00:51;;;;;;;12.63;10.88;;;;;;;8.76;80.56;94482.34;1660609;85;21153;-52
2022/05/04 01:03:19;;;;;;;14.40;10.45;;;;;;;8.80;80.55;94482.23;1681981;85;21681;-51
2022/05/04 01:05:46;;;;;;;17.05;12.90;;;;;;;8.80;80.51;94481.61;1681712;85;21010;-51
2022/05/04 01:08:13;;;;;;;20.57;15.18;;;;;;;8.81;80.24;94484.52;1681982;85;21533;-52
2022/05/04 01:10:39;;;;;;;16.37;13.65;;;;;;;8.75;80.27;94483.55;1681882;85;21037;-51
2022/05/04 01:13:06;;;;;;;20.43;11.43;;;;;;;8.69;80.54;94490.80;1681997;85;21454;-49
2022/05/04 01:15:33;;;;;;;16.85;12.95;;;;;;;8.66;80.69;94495.02;1681892;85;21235;-50
2022/05/04 01:17:59;;;;;;;16.35;12.13;;;;;;;8.66;80.91;94493.03;1681914;85;21472;-51
2022/05/04 01:20:26;;;;;;;15.15;12.45;;;;;;;8.64;80.74;94487.22;1681899;85;20986;-50
2022/05/04 01:22:53;;;;;;;13.75;11.48;;;;;;;8.62;80.84;94494.38;1681663;85;21025;-53
2022/05/04 01:25:20;;;;;;;17.02;12.45;;;;;;;8.60;80.64;94496.17;1681767;85;20994;-51
2022/05/04 01:27:46;;;;;;;18.75;13.13;;;;;;;8.54;80.55;94491.67;1681782;85;21947;-51
2022/05/04 01:30:14;;;;;;;15.95;12.70;;;;;;;8.49;80.76;94490.87;1681732;85;21069;-50
2022/05/04 01:32:41;;;;;;;16.55;13.05;;;;;;;8.41;81.05;94498.54;1681805;85;21117;-52
2022/05/04 01:35:09;;;;;;;17.98;13.38;;;;;;;8.31;81.42;94496.91;1681876;85;20990;-51
2022/05/04 01:37:37;;;;;;;14.53;12.73;;;;;;;8.27;81.98;94501.70;1682028;85;21037;-52
2022/05/04 01:40:05;;;;;;;16.32;12.85;;;;;;;8.24;82.37;94497.73;1681893;85;21115;-51
2022/05/04 01:42:33;;;;;;;17.23;13.00;;;;;;;8.24;82.52;94496.36;1681577;85;21041;-52
2022/05/04 01:45:00;;;;;;;14.63;11.43;;;;;;;8.22;82.28;94494.05;1681959;85;21494;-50
2022/05/04 01:47:26;;;;;;;15.63;12.35;;;;;;;8.19;82.26;94500.41;1681822;85;20994;-51
2022/05/04 01:49:54;;;;;;;15.55;12.65;;;;;;;8.18;82.36;94506.31;1681717;85;21029;-51
2022/05/04 01:52:20;;;;;;;18.02;14.40;;;;;;;8.16;82.47;94499.09;1681743;85;21231;-51
2022/05/04 01:54:47;;;;;;;22.62;15.15;;;;;;;8.18;82.53;94496.13;1681599;85;20986;-51
2022/05/04 01:57:14;;;;;;;17.77;13.98;;;;;;;8.18;82.47;94505.72;1681773;85;21018;-50
2022/05/04 01:59:40;;;;;;;17.05;12.10;;;;;;;8.18;82.46;94502.98;1686129;84;20994;-51
2022/05/04 02:02:07;;;;;;;13.85;11.65;;;;;;;8.20;82.32;94506.63;1687311;85;21356;-51
2022/05/04 02:04:36;;;;;;;15.35;11.85;;;;;;;8.17;82.00;94506.89;1687032;85;21121;-49
2022/05/04 02:07:03;;;;;;;15.48;12.82;;;;;;;8.15;82.17;94509.89;1687132;85;21037;-52
2022/05/04 02:09:30;;;;;;;15.30;12.58;;;;;;;8.15;82.13;94517.53;1687371;85;21465;-52
2022/05/04 02:11:57;;;;;;;15.58;12.13;;;;;;;8.14;82.16;94515.99;1687270;85;21034;-53
2022/05/04 02:14:25;;;;;;;15.10;11.90;;;;;;;8.14;82.02;94506.41;1687464;85;21112;-50
2022/05/04 02:16:52;;;;;;;17.75;12.45;;;;;;;8.08;82.12;94507.38;1687286;85;21231;-52
2022/05/04 02:19:18;;;;;;;22.62;11.65;;;;;;;8.03;82.16;94510.05;1687442;85;21532;-51
2022/05/04 02:21:45;;;;;;;17.80;12.43;;;;;;;7.99;82.29;94516.83;1687430;85;21033;-52
2022/05/04 02:24:13;;;;;;;21.90;13.65;;;;;;;7.96;82.47;94513.01;1687440;85;21535;-52
2022/05/04 02:26:40;;;;;;;20.88;12.88;;;;;;;7.96;82.31;94520.44;1687237;85;21007;-50
2022/05/04 02:29:07;;;;;;;19.60;12.10;;;;;;;7.89;82.00;94514.56;1687437;85;22145;-51
2022/05/04 02:31:34;;;;;;;20.43;13.40;;;;;;;7.85;81.86;94517.27;1687172;85;21077;-51
2022/05/04 02:34:00;;;;;;;19.85;13.13;;;;;;;7.81;81.95;94517.34;1687444;85;20991;-51
2022/05/04 02:39:12;;;;;;;14.10;11.03;;;;;;;7.73;82.03;94523.46;1687674;85;21521;-53
2022/05/04 02:41:39;;;;;;;18.15;12.50;;;;;;;7.63;82.16;94531.36;1687429;85;21119;-51
2022/05/04 02:44:05;;;;;;;17.23;12.03;;;;;;;7.60;82.50;94524.80;1687266;85;21030;-51
2022/05/04 02:46:32;;;;;;;16.32;11.65;;;;;;;7.61;82.81;94529.07;1687521;85;21478;-51
2022/05/04 02:48:59;;;;;;;15.70;11.50;;;;;;;7.62;82.90;94527.86;1687278;85;20998;-51
2022/05/04 02:51:26;;;;;;;20.27;11.63;;;;;;;7.63;82.83;94532.14;1687395;85;21025;-52
2022/05/04 02:53:53;;;;;;;17.20;12.68;;;;;;;7.56;82.45;94537.79;1687319;85;21119;-51
2022/05/04 02:56:20;;;;;;;20.15;14.33;;;;;;;7.48;82.54;94535.09;1687256;85;20977;-50
2022/05/04 02:58:51;;;;;;;15.28;12.70;;;;;;;7.40;82.71;94535.13;1685284;84;20983;-51
2022/05/04 03:04:07;;;;;;;14.80;12.15;;;;;;;7.36;83.53;94554.95;1682032;85;21128;-51
2022/05/04 03:06:36;;;;;;;20.03;13.97;;;;;;;7.28;83.34;94560.45;1682482;85;21137;-51
2022/05/04 03:09:04;;;;;;;24.10;15.10;;;;;;;7.21;83.54;94562.02;1681900;85;21041;-51
2022/05/04 03:14:18;;;;;;;18.55;14.47;;;;;;;7.16;84.06;94567.98;1681991;85;21019;-51
2022/05/04 03:16:45;;;;;;;17.15;14.53;;;;;;;7.18;84.15;94571.67;1681934;85;21093;-52
2022/05/04 03:19:11;;;;;;;23.32;16.48;;;;;;;7.20;84.36;94569.27;1681869;85;21124;-51
2022/05/04 03:21:38;;;;;;;17.15;14.63;;;;;;;7.24;84.54;94569.36;1681908;85;21435;-51
2022/05/04 03:24:06;;;;;;;20.15;15.00;;;;;;;7.25;84.64;94572.26;1681944;84;21011;-51
2022/05/04 03:26:35;;;;;;;19.27;14.55;;;;;;;7.27;84.92;94573.96;1681841;84;21046;-51
2022/05/04 03:29:04;;;;;;;14.70;12.53;;;;;;;7.32;84.97;94586.36;1681881;85;21030;-52
2022/05/04 03:31:31;;;;;;;19.10;12.10;;;;;;;7.37;85.01;94571.53;1681613;85;21272;-51
2022/05/04 03:33:58;;;;;;;15.75;12.28;;;;;;;7.45;84.85;94589.33;1681887;85;20994;-51
2022/05/04 03:36:25;;;;;;;14.87;12.45;;;;;;;7.50;84.92;94586.06;1681830;85;21104;-51
2022/05/04 03:38:53;;;;;;;18.35;12.30;;;;;;;7.57;84.95;94584.52;1682028;84;21081;-52
2022/05/04 03:41:21;;;;;;;19.42;12.45;;;;;;;7.61;84.75;94587.92;1681985;84;21003;-50
2022/05/04 03:43:49;;;;;;;14.87;11.70;;;;;;;7.64;84.66;94593.90;1681856;85;21231;-52
2022/05/04 03:46:21;;;;;;;17.12;11.85;;;;;;;7.71;84.58;94589.59;1681751;85;21013;-50
2022/05/04 03:48:52;;;;;;;25.62;14.05;;;;;;;7.75;84.26;94599.88;1682094;85;21046;-53
2022/05/04 03:51:21;;;;;;;22.05;14.23;;;;;;;7.79;84.30;94600.54;1681886;85;21058;-52
2022/05/04 03:53:52;;;;;;;25.00;15.53;;;;;;;7.85;84.25;94601.53;1681977;85;20978;-53
2022/05/04 03:56:18;;;;;;;18.42;13.98;;;;;;;7.91;84.19;94604.52;1681941;85;21422;-51
2022/05/04 03:58:46;;;;;;;26.25;13.45;;;;;;;7.96;84.21;94612.98;1682706;84;21100;-51
2022/05/04 04:01:17;;;;;;;17.32;14.90;;;;;;;8.10;84.35;94613.94;1687228;85;21086;-52
2022/05/04 04:03:45;;;;;;;21.45;16.45;;;;;;;8.29;84.33;94612.27;1687237;85;20990;-52
2022/05/04 04:06:12;;;;;;;22.60;16.25;;;;;;;8.42;83.63;94609.72;1687318;85;21116;-52
2022/05/04 04:08:39;;;;;;;23.47;16.45;;;;;;;8.48;83.08;94614.06;1687277;85;21227;-52
2022/05/04 04:11:06;;;;;;;21.52;17.45;;;;;;;8.48;82.72;94620.33;1687278;84;20970;-51
2022/05/04 04:13:32;;;;;;;24.87;17.12;;;;;;;8.49;82.57;94621.08;1687231;85;21097;-52
2022/05/04 04:15:59;;;;;;;28.95;18.17;;;;;;;8.55;82.45;94626.17;1687317;85;21600;-50
2022/05/04 04:18:26;;;;;;;30.37;18.12;;;;;;;8.55;82.16;94629.70;1687291;85;21029;-51
2022/05/04 04:23:39;;;;;;;40.55;22.40;;;;;;;8.56;82.30;94638.09;1687526;85;21419;-51
2022/05/04 04:26:08;;;;;;;46.18;25.05;;;;;;;8.62;82.08;94640.45;1687140;84;20985;-53
2022/05/04 04:28:38;;;;;;;36.38;22.10;;;;;;;8.68;82.16;94634.61;1687204;85;21065;-51
2022/05/04 04:31:05;;;;;;;34.73;19.62;;;;;;;8.80;81.94;94632.45;1687259;85;21029;-52
2022/05/04 04:33:31;;;;;;;27.98;18.32;;;;;;;8.89;81.88;94640.81;1687228;85;22106;-50
2022/05/04 04:36:00;;;;;;;25.10;18.25;;;;;;;8.95;81.69;94636.31;1687107;85;20982;-51
2022/05/04 04:38:27;;;;;;;36.48;21.23;;;;;;;9.00;81.48;94633.01;1687540;85;21503;-57
2022/05/04 04:40:54;;;;;;;47.15;25.15;;;;;;;9.03;81.20;94631.53;1687190;85;21077;-58
2022/05/04 04:43:20;;;;;;;59.63;27.98;;;;;;;9.02;81.08;94636.86;1687440;85;21030;-50
2022/05/04 04:45:49;;;;;;;37.05;20.95;;;;;;;9.03;81.47;94636.27;1687355;85;21210;-51
2022/05/04 04:48:16;;;;;;;29.32;18.60;;;;;;;9.13;81.51;94636.52;1687151;85;21521;-53
2022/05/04 04:50:46;;;;;;;32.15;20.60;;;;;;;9.20;81.57;94640.41;1687254;85;21069;-54
2022/05/04 04:53:13;;;;;;;28.30;17.60;;;;;;;9.26;81.62;94640.03;1687140;85;21029;-53
2022/05/04 04:55:44;;;;;;;37.10;21.20;;;;;;;9.30;81.53;94642.06;1687246;85;20998;-52
2022/05/04 04:58:13;;;;;;;50.17;25.35;;;;;;;9.32;81.00;94639.63;1687216;85;21366;-52
2022/05/04 05:00:39;;;;;;;50.65;26.97;;;;;;;9.26;80.61;94642.78;1682606;84;21039;-53
2022/05/04 05:03:06;;;;;;;45.95;24.18;;;;;;;9.22;80.88;94645.63;1681981;85;21512;-51
2022/05/04 05:05:33;;;;;;;55.70;29.07;;;;;;;9.26;80.75;94645.52;1681897;85;21034;-53
2022/05/04 05:08:00;;;;;;;53.95;28.65;;;;;;;9.21;80.66;94644.72;1681748;85;21113;-52
2022/05/04 05:10:27;;;;;;;46.92;25.08;;;;;;;9.20;81.30;94645.89;1681901;85;21178;-53
2022/05/04 05:12:54;;;;;;;46.23;26.80;;;;;;;9.24;81.61;94642.45;1681829;85;21102;-51
2022/05/04 05:18:06;;;;;;;36.03;21.97;;;;;;;9.33;81.66;94634.31;1681629;85;21093;-51
2022/05/04 05:20:36;;;;;;;38.20;22.58;;;;;;;9.36;80.90;94626.55;1681890;84;21052;-52
2022/05/04 05:23:03;;;;;;;42.62;23.92;;;;;;;9.38;80.74;94628.25;1681847;85;21140;-52
2022/05/04 05:25:31;;;;;;;43.55;26.07;;;;;;;9.45;80.57;94626.66;1681169;85;21081;-52
2022/05/04 05:27:58;;;;;;;45.88;27.32;;;;;;;9.50;80.73;94636.48;1681825;85;21042;-53
2022/05/04 05:30:25;;;;;;;45.10;27.10;;;;;;;9.59;81.21;94646.17;1681716;85;21017;-51
2022/05/04 05:32:51;;;;;;;38.58;25.27;;;;;;;9.68;81.47;94646.88;1681670;85;21094;-52
2022/05/04 05:35:18;;;;;;;31.80;22.10;;;;;;;9.80;81.68;94650.20;1681563;85;21214;-51
2022/05/04 05:37:45;;;;;;;32.55;22.45;;;;;;;9.90;81.25;94658.08;1680043;85;21022;-54
2022/05/04 05:40:13;;;;;;;48.90;25.23;;;;;;;9.98;81.25;94659.98;1677622;85;21599;-53
2022/05/04 05:42:39;;;;;;;34.05;22.55;;;;;;;10.05;80.82;94668.78;1679457;85;21041;-52
2022/05/04 05:45:08;;;;;;;34.18;22.20;;;;;;;10.12;79.96;94674.02;1668386;85;21061;-54
2022/05/04 05:47:35;;;;;;;36.17;21.55;;;;;;;10.17;79.80;94672.08;1679936;84;21243;-52
2022/05/04 05:50:02;;;;;;;35.13;21.37;;;;;;;10.19;79.37;94677.89;1673696;84;21572;-52
2022/05/04 05:52:29;;;;;;;34.83;22.65;;;;;;;10.18;79.10;94673.61;1680087;84;21053;-54
2022/05/04 05:55:00;;;;;;;39.92;23.60;;;;;;;10.18;79.36;94672.23;1675708;83;21526;-53
2022/05/04 05:57:27;;;;;;;38.05;24.10;;;;;;;10.29;79.19;94685.60;1650041;85;21553;-55
2022/05/04 05:59:54;;;;;;;40.92;23.20;;;;;;;10.39;79.04;94683.09;1643884;85;21259;-53
2022/05/04 06:02:22;;;;;;;23.77;16.45;;;;;;;10.45;78.53;94687.58;1640233;85;21660;-54
2022/05/04 06:04:50;;;;;;;20.35;14.65;;;;;;;10.42;77.37;94690.45;1614556;87;21061;-53
2022/05/04 06:07:17;;;;;;;23.75;16.30;;;;;;;10.37;77.16;94691.78;1675002;84;21624;-54
2022/05/04 06:09:45;;;;;;;19.25;15.90;;;;;;;10.35;77.21;94685.21;1682080;84;21068;-52
2022/05/04 06:12:13;;;;;;;22.20;17.30;;;;;;;10.34;77.51;94682.30;1683470;84;21255;-53
2022/05/04 06:14:40;;;;;;;21.93;15.78;;;;;;;10.38;77.68;94681.56;1676608;84;21133;-56
2022/05/04 06:17:06;;;;;;;17.65;14.23;;;;;;;10.42;77.64;94691.83;1678476;84;21548;-55
2022/05/04 06:19:35;;;;;;;26.85;18.98;;;;;;;10.36;77.36;94682.63;1676624;84;21065;-52
2022/05/04 06:22:02;;;;;;;19.00;15.43;;;;;;;10.32;77.68;94687.48;1677858;84;21064;-51
2022/05/04 06:24:29;;;;;;;17.23;14.87;;;;;;;10.25;77.63;94689.09;1672881;84;21226;-54
2022/05/04 06:26:56;;;;;;;21.42;15.25;;;;;;;10.21;77.71;94691.98;1670138;84;21010;-56
2022/05/04 06:34:06;;;;;;;16.40;13.75;;;;;;;10.25;77.85;94685.75;1676343;84;21097;-52
2022/05/04 06:34:37;;;;;;;18.40;15.23;;;;;;;10.22;77.70;94685.86;1670651;84;21537;-59
2022/05/04 06:37:04;;;;;;;19.23;14.43;;;;;;;10.26;77.65;94683.75;1672078;84;21040;-52
2022/05/04 06:39:31;;;;;;;20.65;15.10;;;;;;;10.28;77.79;94687.59;1641571;85;21593;-52
2022/05/04 06:41:57;;;;;;;21.97;16.62;;;;;;;10.32;78.13;94686.11;1645056;85;20990;-51
2022/05/04 06:44:24;;;;;;;21.07;16.73;;;;;;;10.43;77.94;94690.61;1644794;85;21073;-53
2022/05/04 06:46:51;;;;;;;24.00;17.23;;;;;;;10.47;77.47;94694.77;1645027;85;21571;-57
2022/05/04 06:49:17;;;;;;;22.90;16.55;;;;;;;10.48;77.27;94696.90;1643555;85;21718;-56
2022/05/04 06:51:46;;;;;;;22.70;17.57;;;;;;;10.45;77.16;94691.70;1663977;84;21072;-53
2022/05/04 06:54:13;;;;;;;24.47;17.87;;;;;;;10.48;77.46;94690.02;1671269;84;21090;-52
2022/05/04 06:56:40;;;;;;;24.27;17.60;;;;;;;10.49;77.43;94686.09;1675030;84;21188;-52
2022/05/04 06:59:06;;;;;;;23.30;16.82;;;;;;;10.59;77.23;94684.92;1678225;84;22724;-54
2022/05/04 07:01:33;;;;;;;26.10;21.07;;;;;;;10.70;76.83;94683.94;1674289;84;22273;-54
2022/05/04 07:04:00;;;;;;;33.63;21.82;;;;;;;10.78;76.57;94689.48;1679115;84;21489;-53
2022/05/04 07:06:27;;;;;;;22.70;16.90;;;;;;;10.86;76.45;94689.39;1670469;84;21133;-57
2022/05/04 07:08:53;;;;;;;23.92;16.62;;;;;;;10.94;76.56;94694.78;1676724;84;21148;-52
2022/05/04 07:11:20;;;;;;;23.83;15.98;;;;;;;11.01;76.49;94695.13;1680574;84;21046;-54
2022/05/04 07:13:47;;;;;;;20.62;15.68;;;;;;;11.13;76.28;94697.03;1677288;84;22222;-53
2022/05/04 07:16:15;;;;;;;21.42;16.82;;;;;;;11.19;76.07;94686.33;1674373;84;22223;-53
2022/05/04 07:18:41;;;;;;;23.67;17.60;;;;;;;11.21;75.68;94690.77;1683040;84;21108;-56
2022/05/04 07:21:08;;;;;;;28.62;18.07;;;;;;;11.23;75.75;94689.73;1681548;84;21010;-56
2022/05/04 07:23:36;;;;;;;22.82;15.75;;;;;;;11.28;75.84;94686.98;1679207;84;21072;-53
2022/05/04 07:26:04;;;;;;;24.30;16.62;;;;;;;11.41;75.98;94696.70;1630213;84;21138;-54
2022/05/04 07:28:31;;;;;;;22.50;15.65;;;;;;;11.54;75.75;94695.21;1672851;84;21069;-52
2022/05/04 07:30:57;;;;;;;21.35;16.07;;;;;;;11.64;75.27;94693.44;1677205;84;21538;-52
2022/05/04 07:33:24;;;;;;;19.10;15.20;;;;;;;11.70;74.78;94692.98;1663454;84;21122;-55
2022/05/04 07:35:52;;;;;;;21.07;15.93;;;;;;;11.76;74.47;94693.94;1677464;84;21076;-53
2022/05/04 07:38:18;;;;;;;22.80;15.43;;;;;;;11.85;74.24;94699.46;1673676;84;21103;-53
2022/05/04 07:43:31;;;;;;;17.87;13.35;;;;;;;12.12;73.29;94698.75;1675439;84;21600;-54
2022/05/04 07:45:58;;;;;;;24.75;15.53;;;;;;;12.11;72.71;94695.20;1680646;84;21068;-54
2022/05/04 07:48:25;;;;;;;25.17;15.45;;;;;;;12.08;72.70;94698.13;1676625;84;21397;-54
2022/05/04 07:50:52;;;;;;;23.07;15.85;;;;;;;12.11;72.78;94695.84;1685455;84;21273;-55
2022/05/04 07:53:19;;;;;;;20.95;16.48;;;;;;;12.14;72.70;94697.67;1679169;84;21144;-54
2022/05/04 07:55:47;;;;;;;20.35;14.68;;;;;;;12.17;72.87;94704.42;1676640;84;21136;-59
2022/05/04 07:58:14;;;;;;;21.45;14.43;;;;;;;12.23;72.69;94702.58;1679947;84;21056;-54
2022/05/04 08:06:14;;;;;;;19.50;13.62;;;;;;;12.57;71.92;94707.19;1690176;83;37646;-52
2022/05/04 08:08:42;;;;;;;20.32;15.85;;;;;;;12.68;71.47;94703.36;1695035;83;21055;-55
2022/05/04 08:11:08;;;;;;;19.80;15.43;;;;;;;12.71;71.54;94703.81;1681769;83;21066;-55
2022/05/04 08:13:35;;;;;;;22.32;16.02;;;;;;;12.83;71.72;94706.25;1676912;83;21598;-56
2022/05/04 08:16:04;;;;;;;28.40;16.75;;;;;;;13.01;70.67;94700.73;1683380;83;21564;-60
2022/05/04 08:18:32;;;;;;;23.70;15.93;;;;;;;13.09;70.39;94702.70;1684338;83;21562;-52
2022/05/04 08:21:03;;;;;;;21.87;16.02;;;;;;;13.11;70.22;94705.77;1649296;85;21370;-54
2022/05/04 08:23:31;;;;;;;20.77;15.03;;;;;;;13.17;69.89;94707.29;1649423;85;21365;-53
2022/05/04 08:25:58;;;;;;;20.82;15.25;;;;;;;13.21;69.50;94711.43;1636912;87;21692;-54
2022/05/04 08:28:24;;;;;;;23.50;15.08;;;;;;;13.33;69.44;94716.61;1637080;87;21122;-55
2022/05/04 08:30:51;;;;;;;21.12;15.75;;;;;;;13.42;69.24;94716.59;1635061;87;21102;-52
2022/05/04 08:33:18;;;;;;;21.37;15.32;;;;;;;13.43;69.08;94713.35;1629660;86;21029;-50
2022/05/04 08:35:46;;;;;;;17.05;14.58;;;;;;;13.59;68.86;94710.22;1637798;86;21100;-53
2022/05/04 08:38:15;;;;;;;19.15;15.43;;;;;;;13.69;68.47;94707.58;1638967;86;21081;-52
2022/05/04 08:40:42;;;;;;;21.05;15.70;;;;;;;13.86;68.57;94710.72;1639169;86;21277;-58
2022/05/04 08:43:09;;;;;;;21.07;16.02;;;;;;;14.06;68.05;94702.02;1632241;87;21419;-54
2022/05/04 08:45:39;;;;;;;17.77;13.85;;;;;;;14.30;68.35;94695.87;1634556;86;21085;-56
2022/05/04 08:48:08;;;;;;;21.85;16.00;;;;;;;14.59;66.74;94699.50;1630659;87;21276;-54
2022/05/04 08:50:39;;;;;;;26.85;18.10;;;;;;;14.77;65.60;94695.80;1639813;86;21735;-56
2022/05/04 08:53:05;;;;;;;25.60;18.42;;;;;;;14.85;65.68;94694.95;1637355;86;21410;-53
2022/05/04 08:55:34;;;;;;;35.43;19.77;;;;;;;15.03;64.46;94697.55;1637757;87;21544;-52
2022/05/04 08:58:02;;;;;;;28.32;18.37;;;;;;;15.11;63.03;94694.56;1634101;86;21121;-52
2022/05/04 09:00:28;;;;;;;40.98;21.75;;;;;;;15.24;63.82;94690.89;1632458;87;21117;-54
2022/05/04 09:02:55;;;;;;;30.10;21.20;;;;;;;15.38;63.12;94696.31;1624050;88;21085;-53
2022/05/04 09:05:27;;;;;;;31.85;20.40;;;;;;;15.53;63.49;94690.89;1591210;87;21261;-54
2022/05/04 09:07:56;;;;;;;38.63;21.93;;;;;;;15.64;62.43;94698.01;1646609;85;24752;-51
2022/05/04 09:10:31;;;;;;;36.15;22.37;;;;;;;15.67;60.66;94692.11;1644224;85;21520;-54
2022/05/04 09:12:57;;;;;;;30.10;19.85;;;;;;;15.61;60.54;94697.59;1607523;87;21125;-51
2022/05/04 09:15:33;;;;;;;38.00;22.30;;;;;;;15.55;60.42;94696.72;1610227;87;21139;-52
2022/05/04 09:18:07;;;;;;;35.38;22.65;;;;;;;15.51;59.97;94698.92;1631240;86;21417;-52
2022/05/04 09:20:51;;;;;;;43.02;23.30;;;;;;;15.48;59.99;94698.50;1628712;86;22321;-58
2022/05/04 09:23:32;;;;;;;37.30;21.65;;;;;;;15.47;60.17;94691.43;1625690;86;21062;-56
2022/05/04 09:26:02;;;;;;;31.73;19.17;;;;;;;15.51;61.11;94690.61;1646552;85;20999;-56
2022/05/04 09:28:29;;;;;;;33.25;21.02;;;;;;;15.56;61.44;94696.86;1645849;85;21031;-53
2022/05/04 09:30:59;;;;;;;32.63;20.37;;;;;;;15.50;61.76;94691.85;1646318;85;21179;-53
2022/05/04 09:33:32;;;;;;;35.63;22.25;;;;;;;15.45;61.67;94691.15;1611183;87;21073;-52
2022/05/04 09:36:00;;;;;;;30.85;20.25;;;;;;;15.33;61.80;94690.81;1633042;86;21037;-53
2022/05/04 09:46:54;;;;;;;30.12;21.25;;;;;;;14.74;64.57;94690.61;1647107;85;21043;-56
2022/05/04 09:49:24;;;;;;;29.63;20.88;;;;;;;14.74;64.75;94679.53;1653991;85;21135;-55
2022/05/04 09:51:53;;;;;;;27.60;19.85;;;;;;;14.77;64.47;94684.11;1643172;85;21122;-52
2022/05/04 09:54:27;;;;;;;29.80;19.82;;;;;;;14.74;64.73;94686.45;1637281;85;21045;-53
2022/05/04 09:57:00;;;;;;;25.55;19.07;;;;;;;14.65;65.50;94683.75;1648482;85;21328;-59
2022/05/04 09:59:31;;;;;;;;;;;;;;;14.59;66.29;94683.52;1647507;85;21053;-57
2022/05/04 10:01:59;;;;;;;30.62;19.60;;;;;;;14.53;66.62;94684.79;1623130;86;20411;-56
2022/05/04 10:04:26;;;;;;;29.18;19.42;;;;;;;14.40;66.95;94674.44;1632759;86;21074;-56
2022/05/04 10:06:55;;;;;;;28.32;20.82;;;;;;;14.31;67.45;94668.95;1627337;86;21131;-53
2022/05/04 10:09:24;;;;;;;31.33;21.93;;;;;;;14.27;68.11;94673.30;1628163;86;21312;-53
2022/05/04 10:11:57;;;;;;;35.10;23.65;;;;;;;14.21;69.10;94667.50;1626076;86;21073;-58
2022/05/04 10:14:22;;;;;;;33.60;24.85;;;;;;;14.09;70.09;94674.00;1635763;86;22291;-54
2022/05/04 10:17:12;;;;;;;31.90;21.68;;;;;;;13.94;71.23;94675.94;1627449;86;21061;-53
2022/05/04 10:19:48;;;;;;;34.92;22.65;;;;;;;13.83;72.13;94674.33;1631049;86;21156;-55
2022/05/04 10:22:19;;;;;;;39.50;29.40;;;;;;;13.75;73.23;94674.51;1625256;86;21247;-56
2022/05/04 10:24:46;;;;;;;33.33;22.85;;;;;;;13.77;73.94;94672.03;1612634;86;21080;-57
2022/05/04 10:27:20;;;;;;;29.52;21.05;;;;;;;13.82;74.59;94672.80;1627840;86;21091;-56
2022/05/04 10:32:46;;;;;;;28.60;22.93;;;;;;;13.90;73.90;94668.44;1637452;86;21116;-56
2022/05/04 10:35:22;;;;;;;26.52;20.40;;;;;;;13.98;73.05;94669.64;1643807;86;21620;-54
2022/05/04 10:38:03;;;;;;;26.77;18.75;;;;;;;14.01;72.98;94673.59;1677965;84;20985;-55
2022/05/04 10:40:40;;;;;;;21.00;18.07;;;;;;;14.03;73.29;94666.22;1675379;84;22433;-55
2022/05/04 10:43:13;;;;;;;22.37;16.73;;;;;;;14.04;73.28;94656.68;1692582;84;20970;-56
2022/05/04 10:45:46;;;;;;;20.97;16.00;;;;;;;14.08;71.85;94655.27;1693709;84;21030;-53
2022/05/04 10:48:22;;;;;;;26.67;18.10;;;;;;;14.02;70.55;94658.52;1681054;84;21123;-55
2022/05/04 10:50:57;;;;;;;28.05;18.37;;;;;;;13.94;70.62;94662.89;1696016;84;20968;-55
2022/05/04 10:53:29;;;;;;;22.60;17.50;;;;;;;13.86;70.70;94664.48;1694248;84;21499;-54
2022/05/04 10:56:07;;;;;;;28.57;19.65;;;;;;;13.82;70.45;94664.50;1679359;84;21058;-53
2022/05/04 10:58:47;;;;;;;30.35;19.75;;;;;;;13.81;70.34;94664.36;1677689;84;21266;-55
2022/05/04 11:01:23;;;;;;;27.73;19.37;;;;;;;13.76;70.43;94662.99;1678510;83;21812;-55
2022/05/04 11:04:16;;;;;;;26.77;18.57;;;;;;;13.76;70.47;94662.99;1673403;83;21060;-53
2022/05/04 11:07:08;;;;;;;28.15;19.02;;;;;;;13.80;70.13;94659.43;1678822;83;21070;-55
2022/05/04 11:09:43;;;;;;;26.37;20.37;;;;;;;13.90;69.90;94662.30;1683688;83;22224;-58
2022/05/04 11:12:12;;;;;;;25.60;19.60;;;;;;;14.03;70.67;94657.92;1617054;83;21152;-57
2022/05/04 11:14:39;;;;;;;27.13;21.25;;;;;;;14.16;70.87;94650.18;1683020;83;21267;-56
2022/05/04 11:17:14;;;;;;;25.88;20.12;;;;;;;14.26;71.50;94648.86;1647260;85;21405;-57
2022/05/04 11:19:46;;;;;;;31.50;23.45;;;;;;;14.34;71.07;94652.17;1619353;87;21569;-56
2022/05/04 11:22:14;;;;;;;31.27;22.93;;;;;;;14.36;70.89;94651.72;1614847;87;22479;-56
2022/05/04 11:24:42;;;;;;;27.67;20.80;;;;;;;14.41;70.57;94652.44;1637167;86;21077;-55
2022/05/04 11:27:08;;;;;;;23.55;16.82;;;;;;;14.48;70.27;94652.84;1624769;86;22012;-58
2022/05/04 11:29:35;;;;;;;22.48;16.27;;;;;;;14.51;69.50;94654.05;1635052;86;21532;-58
2022/05/04 11:32:04;;;;;;;24.15;16.87;;;;;;;14.50;68.31;94655.89;1649808;85;21045;-54
2022/05/04 11:34:36;;;;;;;26.62;18.90;;;;;;;14.46;67.56;94656.07;1650390;85;21056;-55
2022/05/04 11:37:09;;;;;;;33.38;24.37;;;;;;;14.42;67.27;94649.20;1649717;85;21206;-54
2022/05/04 11:39:38;;;;;;;30.48;23.38;;;;;;;14.46;67.97;94652.55;1638778;86;21179;-55
2022/05/04 11:42:09;;;;;;;28.07;22.73;;;;;;;14.50;69.12;94653.91;1632745;86;21483;-55
2022/05/04 11:44:46;;;;;;;33.08;24.47;;;;;;;14.45;69.41;94653.80;1632149;86;21069;-54
2022/05/04 11:47:08;;;;;;;33.05;22.40;;;;;;;14.38;69.52;94648.61;1621687;88;21080;-55
2022/05/04 11:49:35;;;;;;;27.75;21.35;;;;;;;14.30;69.64;94645.28;1648929;85;21057;-58
2022/05/04 11:52:04;;;;;;;29.18;21.68;;;;;;;14.27;70.14;94653.16;1648806;85;22254;-54
2022/05/04 11:54:32;;;;;;;36.15;23.20;;;;;;;14.29;70.39;94654.22;1647694;85;21081;-54
2022/05/04 11:56:58;;;;;;;36.15;24.77;;;;;;;14.33;70.22;94651.28;1649975;85;21101;-57
2022/05/04 11:59:31;;;;;;;32.28;23.55;;;;;;;14.37;70.17;94650.48;1650421;85;21090;-57
2022/05/04 12:01:59;;;;;;;32.75;23.87;;;;;;;14.42;70.46;94639.52;1633614;86;21513;-56
2022/05/04 12:04:27;;;;;;;33.20;23.60;;;;;;;14.48;70.37;94640.38;1646089;85;21090;-55
2022/05/04 12:06:55;;;;;;;28.90;21.77;;;;;;;14.56;70.09;94638.77;1646253;85;21038;-54